createdAt,value
2018-10-03T00:02:03.587Z,64.75
2018-10-03T00:04:32.510Z,63.94
2018-10-03T00:07:01.535Z,64.04
2018-10-03T00:09:30.531Z,64.35
2018-10-03T00:11:59.470Z,64.22
2018-10-03T00:14:28.566Z,64.22
2018-10-03T00:16:57.543Z,63.32
2018-10-03T00:19:26.528Z,63.76
2018-10-03T00:21:55.491Z,63.71
2018-10-03T00:24:24.454Z,63.63
2018-10-03T00:26:53.496Z,63.54
2018-10-03T00:29:22.439Z,63.74
2018-10-03T00:31:51.428Z,63.62
2018-10-03T00:34:20.378Z,63.62
2018-10-03T00:36:49.387Z,63.99
2018-10-03T00:39:18.360Z,63.62
2018-10-03T00:41:47.350Z,63.68
2018-10-03T00:44:16.350Z,63.99
2018-10-03T00:46:45.323Z,63.84
2018-10-03T00:49:14.280Z,63.88
2018-10-03T00:51:43.245Z,63.42
2018-10-03T00:54:12.220Z,63.99
2018-10-03T00:56:41.182Z,64.04
2018-10-03T00:59:10.122Z,63.79
2018-10-03T01:01:39.231Z,63.82
2018-10-03T01:04:08.179Z,63.74
2018-10-03T01:06:37.158Z,63.88
2018-10-03T01:09:06.899Z,64.05
2018-10-03T01:11:35.866Z,63.70
2018-10-03T01:14:04.878Z,63.01
2018-10-03T01:16:33.813Z,63.00
2018-10-03T01:19:02.738Z,63.27
2018-10-03T01:21:31.690Z,63.03
2018-10-03T01:24:00.599Z,63.14
2018-10-03T01:26:29.586Z,62.90
2018-10-03T01:28:58.523Z,63.08
2018-10-03T01:31:27.455Z,62.63
2018-10-03T01:33:56.370Z,63.06
2018-10-03T01:36:25.345Z,62.84
2018-10-03T01:38:54.299Z,63.24
2018-10-03T01:41:23.292Z,63.88
2018-10-03T01:43:52.295Z,63.71
2018-10-03T01:46:21.371Z,63.30
2018-10-03T01:48:50.322Z,63.08
2018-10-03T01:51:19.366Z,63.13
2018-10-03T01:53:48.333Z,63.21
2018-10-03T01:56:17.343Z,63.51
2018-10-03T01:58:46.320Z,62.83
2018-10-03T02:01:15.261Z,63.05
2018-10-03T02:03:44.242Z,63.26
2018-10-03T02:06:13.194Z,63.13
2018-10-03T02:08:42.292Z,63.27
2018-10-03T02:11:11.239Z,63.09
2018-10-03T02:13:40.209Z,63.18
2018-10-03T02:16:09.186Z,63.26
2018-10-03T02:18:38.148Z,63.20
2018-10-03T02:21:07.252Z,62.79
2018-10-03T02:23:36.207Z,63.26
2018-10-03T02:26:05.186Z,63.65
2018-10-03T02:28:34.158Z,63.25
2018-10-03T02:31:03.169Z,63.73
2018-10-03T02:33:32.163Z,63.41
2018-10-03T02:36:01.139Z,63.53
2018-10-03T02:38:30.136Z,63.46
2018-10-03T02:40:59.135Z,63.22
2018-10-03T02:43:28.126Z,63.61
2018-10-03T02:45:57.112Z,63.49
2018-10-03T02:48:26.062Z,63.65
2018-10-03T02:50:55.003Z,63.83
2018-10-03T02:53:23.947Z,63.73
2018-10-03T02:55:52.878Z,64.01
2018-10-03T02:58:21.822Z,63.79
2018-10-03T03:00:50.748Z,64.38
2018-10-03T03:03:19.701Z,64.54
2018-10-03T03:05:48.626Z,64.65
2018-10-03T03:08:17.617Z,64.48
2018-10-03T03:10:46.579Z,63.91
2018-10-03T03:13:15.531Z,64.45
2018-10-03T03:15:44.546Z,64.06
2018-10-03T03:18:13.560Z,64.12
2018-10-03T03:20:42.484Z,64.34
2018-10-03T03:23:11.431Z,64.39
2018-10-03T03:25:40.343Z,64.06
2018-10-03T03:28:09.282Z,63.87
2018-10-03T03:30:38.204Z,64.42
2018-10-03T03:33:07.171Z,64.81
2018-10-03T03:35:36.098Z,64.53
2018-10-03T03:38:05.059Z,64.21
2018-10-03T03:40:33.986Z,64.36
2018-10-03T03:43:02.931Z,63.99
2018-10-03T03:45:31.889Z,64.37
2018-10-03T03:48:00.886Z,64.43
2018-10-03T03:50:30.111Z,64.47
2018-10-03T03:52:59.074Z,63.96
2018-10-03T03:55:28.031Z,64.67
2018-10-03T03:57:56.971Z,64.08
2018-10-03T04:00:25.898Z,64.21
2018-10-03T04:02:54.860Z,64.87
2018-10-03T04:05:23.788Z,63.68
2018-10-03T04:07:52.747Z,63.35
2018-10-03T04:10:21.671Z,63.46
2018-10-03T04:12:50.894Z,63.50
2018-10-03T04:15:19.899Z,63.10
2018-10-03T04:17:48.826Z,63.11
2018-10-03T04:20:17.790Z,63.06
2018-10-03T04:22:46.713Z,63.33
2018-10-03T04:25:15.657Z,63.13
2018-10-03T04:27:44.590Z,63.03
2018-10-03T04:30:13.535Z,63.07
2018-10-03T04:32:42.479Z,63.24
2018-10-03T04:35:11.449Z,63.03
2018-10-03T04:37:40.374Z,63.04
2018-10-03T04:40:09.330Z,62.69
2018-10-03T04:42:38.257Z,62.86
2018-10-03T04:45:07.216Z,62.87
2018-10-03T04:47:36.146Z,63.18
2018-10-03T04:50:05.095Z,62.81
2018-10-03T04:52:34.018Z,63.91
2018-10-03T04:55:02.988Z,63.75
2018-10-03T04:57:31.934Z,63.14
2018-10-03T05:00:00.867Z,62.88
2018-10-03T05:02:29.798Z,63.12
2018-10-03T05:04:58.750Z,64.10
2018-10-03T05:07:27.697Z,63.88
2018-10-03T05:09:56.642Z,64.01
2018-10-03T05:12:25.571Z,63.75
2018-10-03T05:14:54.558Z,63.93
2018-10-03T05:17:23.474Z,64.32
2018-10-03T05:19:52.427Z,63.96
2018-10-03T05:22:21.359Z,64.04
2018-10-03T05:24:50.311Z,63.88
2018-10-03T05:27:19.253Z,63.98
2018-10-03T05:29:48.195Z,63.89
2018-10-03T05:32:17.126Z,63.64
2018-10-03T05:34:46.091Z,63.37
2018-10-03T05:37:15.017Z,62.99
2018-10-03T05:39:44.007Z,63.34
2018-10-03T05:42:12.945Z,63.09
2018-10-03T05:44:41.879Z,63.70
2018-10-03T05:47:10.823Z,63.25
2018-10-03T05:49:39.826Z,63.15
2018-10-03T05:52:08.758Z,63.33
2018-10-03T05:54:37.735Z,63.87
2018-10-03T05:57:06.764Z,63.54
2018-10-03T05:59:35.770Z,63.25
2018-10-03T06:02:04.748Z,63.31
2018-10-03T06:04:33.703Z,63.17
2018-10-03T06:07:02.619Z,63.55
2018-10-03T06:09:31.578Z,63.13
2018-10-03T06:12:00.547Z,63.44
2018-10-03T06:14:29.513Z,63.25
2018-10-03T06:16:58.467Z,62.78
2018-10-03T06:19:27.462Z,62.74
2018-10-03T06:21:56.438Z,62.74
2018-10-03T06:24:25.406Z,63.34
2018-10-03T06:26:54.368Z,63.34
2018-10-03T06:29:23.464Z,63.17
2018-10-03T06:31:52.437Z,63.54
2018-10-03T06:34:21.428Z,63.27
2018-10-03T06:36:50.406Z,63.24
2018-10-03T06:39:19.499Z,63.21
2018-10-03T06:41:48.427Z,62.83
2018-10-03T06:44:17.980Z,63.22
2018-10-03T06:46:47.042Z,63.23
2018-10-03T06:49:16.014Z,63.64
2018-10-03T06:51:44.985Z,63.67
2018-10-03T06:54:13.918Z,64.13
2018-10-03T06:56:42.891Z,64.40
2018-10-03T06:59:11.822Z,64.10
2018-10-03T07:01:40.786Z,63.91
2018-10-03T07:04:09.726Z,63.84
2018-10-03T07:06:38.687Z,62.95
2018-10-03T07:09:08.254Z,62.87
2018-10-03T07:11:37.530Z,62.29
2018-10-03T07:14:06.670Z,62.63
2018-10-03T07:16:35.663Z,61.92
2018-10-03T07:19:04.620Z,61.66
2018-10-03T07:21:33.609Z,62.65
2018-10-03T07:24:02.562Z,62.22
2018-10-03T07:26:31.521Z,61.65
2018-10-03T07:29:00.474Z,61.64
2018-10-03T07:31:29.654Z,62.09
2018-10-03T07:33:58.698Z,61.27
2018-10-03T07:36:27.658Z,61.22
2018-10-03T07:38:56.604Z,60.45
2018-10-03T07:41:25.670Z,60.51
2018-10-03T07:43:54.616Z,60.54
2018-10-03T07:46:23.601Z,60.10
2018-10-03T07:48:52.633Z,60.32
2018-10-03T07:51:21.603Z,59.37
2018-10-03T07:53:50.566Z,59.09
2018-10-03T07:56:19.641Z,59.22
2018-10-03T07:58:48.606Z,59.32
2018-10-03T08:01:17.587Z,58.27
2018-10-03T08:03:47.502Z,58.98
2018-10-03T08:06:16.471Z,58.56
2018-10-03T08:08:45.435Z,58.38
2018-10-03T08:11:14.407Z,57.43
2018-10-03T08:13:43.332Z,57.69
2018-10-03T08:16:12.279Z,57.10
2018-10-03T08:18:41.203Z,56.19
2018-10-03T08:21:10.139Z,56.35
2018-10-03T08:23:39.069Z,56.16
2018-10-03T08:26:08.011Z,56.42
2018-10-03T08:28:37.035Z,55.93
2018-10-03T08:31:06.038Z,55.83
2018-10-03T08:33:34.963Z,55.87
2018-10-03T08:36:03.967Z,55.87
2018-10-03T08:38:32.945Z,54.85
2018-10-03T08:41:01.847Z,55.86
2018-10-03T08:43:30.794Z,55.48
2018-10-03T08:45:59.727Z,55.40
2018-10-03T08:48:32.298Z,55.62
2018-10-03T08:51:01.242Z,54.95
2018-10-03T08:53:30.657Z,54.69
2018-10-03T08:55:59.752Z,54.48
2018-10-03T08:58:28.952Z,53.74
2018-10-03T09:00:57.894Z,54.06
2018-10-03T09:03:26.977Z,55.53
2018-10-03T09:05:56.107Z,54.72
2018-10-03T09:08:25.176Z,53.56
2018-10-03T09:10:54.221Z,54.36
2018-10-03T09:13:23.230Z,53.46
2018-10-03T09:15:52.711Z,52.97
2018-10-03T09:18:21.716Z,53.25
2018-10-03T09:20:50.718Z,53.65
2018-10-03T09:23:19.713Z,53.80
2018-10-03T09:25:49.714Z,53.76
2018-10-03T09:28:18.781Z,53.84
2018-10-03T09:30:52.354Z,53.56
2018-10-03T09:33:21.456Z,53.74
2018-10-03T09:35:50.410Z,53.37
2018-10-03T09:38:19.390Z,54.09
2018-10-03T09:40:48.484Z,53.43
2018-10-03T09:43:17.458Z,53.47
2018-10-03T09:45:46.507Z,54.30
2018-10-03T09:48:15.476Z,55.12
2018-10-03T09:50:44.458Z,55.01
2018-10-03T09:53:13.463Z,54.32
2018-10-03T09:55:42.431Z,54.25
2018-10-03T09:58:11.401Z,55.58
2018-10-03T10:00:45.722Z,54.61
2018-10-03T10:03:14.779Z,53.66
2018-10-03T10:05:44.651Z,52.92
2018-10-03T10:08:13.627Z,54.40
2018-10-03T10:10:42.626Z,54.02
2018-10-03T10:13:11.619Z,53.84
2018-10-03T10:15:40.816Z,52.82
2018-10-03T10:18:09.850Z,53.59
2018-10-03T10:20:38.903Z,53.54
2018-10-03T10:23:07.970Z,53.38
2018-10-03T10:25:36.912Z,53.53
2018-10-03T10:28:06.315Z,53.65
2018-10-03T10:30:35.295Z,53.58
2018-10-03T10:33:04.313Z,52.73
2018-10-03T10:35:33.238Z,52.65
2018-10-03T10:38:02.255Z,52.05
2018-10-03T10:40:31.343Z,51.38
2018-10-03T10:43:01.312Z,52.18
2018-10-03T10:45:30.259Z,52.31
2018-10-03T10:47:59.229Z,51.99
2018-10-03T10:50:28.262Z,51.47
2018-10-03T10:52:57.803Z,51.23
2018-10-03T10:55:26.914Z,52.13
2018-10-03T10:57:57.655Z,51.24
2018-10-03T11:00:26.663Z,51.91
2018-10-03T11:02:55.695Z,50.67
2018-10-03T11:05:24.651Z,50.28
2018-10-03T11:07:53.675Z,51.21
2018-10-03T11:10:22.750Z,51.61
2018-10-03T11:12:51.799Z,50.87
2018-10-03T11:15:20.794Z,51.89
2018-10-03T11:17:49.750Z,52.26
2018-10-03T11:20:18.773Z,53.25
2018-10-03T11:22:47.759Z,53.35
2018-10-03T11:25:16.835Z,53.31
2018-10-03T11:27:46.035Z,53.63
2018-10-03T11:30:15.010Z,53.27
2018-10-03T11:32:43.959Z,53.35
2018-10-03T11:35:12.966Z,52.55
2018-10-03T11:37:41.938Z,52.15
2018-10-03T11:40:10.981Z,52.32
2018-10-03T11:42:41.002Z,51.40
2018-10-03T11:45:10.051Z,51.20
2018-10-03T11:47:38.978Z,50.95
2018-10-03T11:50:07.978Z,50.56
2018-10-03T11:52:36.959Z,50.96
2018-10-03T11:55:05.945Z,51.56
2018-10-03T11:57:34.875Z,51.14
2018-10-03T12:00:03.950Z,51.22
2018-10-03T12:02:33.010Z,51.02
2018-10-03T12:05:02.087Z,49.96
2018-10-03T12:07:31.051Z,49.79
2018-10-03T12:10:00.115Z,50.64
2018-10-03T12:12:29.208Z,48.95
2018-10-03T12:14:58.191Z,48.29
2018-10-03T12:17:27.234Z,47.98
2018-10-03T12:19:56.367Z,48.90
2018-10-03T12:22:25.348Z,48.23
2018-10-03T12:24:55.153Z,49.67
2018-10-03T12:27:24.111Z,49.43
2018-10-03T12:29:53.283Z,49.14
2018-10-03T12:32:22.235Z,49.60
2018-10-03T12:34:51.155Z,50.28
2018-10-03T12:37:20.086Z,49.77
2018-10-03T12:39:49.057Z,50.33
2018-10-03T12:42:17.977Z,49.08
2018-10-03T12:44:46.919Z,48.57
2018-10-03T12:47:15.848Z,49.83
2018-10-03T12:49:44.836Z,49.85
2018-10-03T12:52:13.748Z,50.58
2018-10-03T12:54:42.698Z,50.30
2018-10-03T12:57:11.651Z,50.71
2018-10-03T12:59:40.585Z,51.23
2018-10-03T13:02:09.563Z,51.69
2018-10-03T13:04:38.569Z,50.96
2018-10-03T13:07:07.498Z,51.00
2018-10-03T13:09:36.474Z,50.56
2018-10-03T13:12:05.398Z,47.50
2018-10-03T13:14:34.386Z,48.46
2018-10-03T13:17:03.383Z,48.86
2018-10-03T13:19:32.330Z,49.42
2018-10-03T13:22:01.255Z,49.19
2018-10-03T13:24:30.389Z,49.15
2018-10-03T13:26:59.262Z,48.80
2018-10-03T13:29:28.204Z,47.42
2018-10-03T13:31:57.140Z,48.00
2018-10-03T13:34:26.141Z,49.22
2018-10-03T13:36:55.123Z,48.39
2018-10-03T13:39:24.068Z,49.07
2018-10-03T13:41:53.058Z,48.79
2018-10-03T13:44:22.273Z,48.91
2018-10-03T13:46:51.443Z,48.17
2018-10-03T13:49:20.306Z,47.81
2018-10-03T13:51:49.259Z,48.23
2018-10-03T13:54:18.170Z,48.44
2018-10-03T13:56:47.130Z,49.14
2018-10-03T13:59:16.055Z,49.16
2018-10-03T14:01:45.067Z,48.27
2018-10-03T14:04:13.996Z,48.45
2018-10-03T14:06:42.921Z,48.56
2018-10-03T14:09:12.268Z,48.82
2018-10-03T14:11:41.274Z,49.38
2018-10-03T14:14:10.238Z,49.60
2018-10-03T14:16:39.222Z,49.19
2018-10-03T14:19:08.171Z,49.37
2018-10-03T14:21:37.170Z,50.03
2018-10-03T14:24:06.112Z,50.44
2018-10-03T14:26:35.121Z,49.97
2018-10-03T14:29:04.062Z,49.33
2018-10-03T14:31:33.222Z,49.75
2018-10-03T14:34:02.266Z,49.49
2018-10-03T14:36:31.226Z,49.29
2018-10-03T14:39:00.181Z,49.25
2018-10-03T14:41:29.214Z,49.02
2018-10-03T14:43:58.150Z,49.65
2018-10-03T14:46:27.160Z,49.26
2018-10-03T14:48:56.078Z,48.54
2018-10-03T14:51:25.126Z,48.93
2018-10-03T14:53:54.071Z,49.28
2018-10-03T14:56:23.038Z,49.02
2018-10-03T14:58:52.116Z,49.48
2018-10-03T15:01:21.095Z,49.24
2018-10-03T15:03:50.115Z,49.87
2018-10-03T15:06:20.147Z,49.80
2018-10-03T15:08:50.197Z,49.34
2018-10-03T15:11:20.109Z,49.32
2018-10-03T15:13:49.175Z,49.77
2018-10-03T15:16:18.271Z,48.88
2018-10-03T15:18:47.294Z,48.92
2018-10-03T15:21:16.393Z,49.22
2018-10-03T15:23:45.384Z,49.29
2018-10-03T15:26:14.362Z,48.90
2018-10-03T15:28:43.408Z,48.84
2018-10-03T15:31:12.466Z,48.86
2018-10-03T15:33:41.430Z,48.78
2018-10-03T15:36:10.438Z,49.00
2018-10-03T15:38:39.712Z,48.30
2018-10-03T15:41:08.727Z,48.33
2018-10-03T15:43:37.671Z,48.53
2018-10-03T15:46:06.634Z,48.63
2018-10-03T15:48:35.595Z,48.82
2018-10-03T15:51:04.603Z,48.15
2018-10-03T15:53:34.222Z,47.79
2018-10-03T15:56:03.498Z,48.57
2018-10-03T15:58:32.474Z,48.94
2018-10-03T16:01:01.474Z,48.89
2018-10-03T16:03:30.503Z,48.12
2018-10-03T16:05:59.438Z,48.24
2018-10-03T16:08:28.411Z,48.28
2018-10-03T16:10:57.443Z,48.37
2018-10-03T16:13:26.411Z,48.31
2018-10-03T16:15:55.334Z,48.76
2018-10-03T16:18:24.288Z,48.59
2018-10-03T16:20:53.280Z,48.33
2018-10-03T16:23:22.247Z,48.92
2018-10-03T16:25:51.260Z,48.67
2018-10-03T16:28:20.314Z,48.83
2018-10-03T16:30:49.278Z,48.22
2018-10-03T16:33:18.235Z,49.09
2018-10-03T16:35:47.150Z,48.35
2018-10-03T16:38:16.151Z,48.36
2018-10-03T16:40:45.679Z,48.72
2018-10-03T16:43:14.647Z,48.79
2018-10-03T16:45:43.561Z,49.04
2018-10-03T16:48:12.503Z,48.28
2018-10-03T16:50:41.430Z,48.81
2018-10-03T16:53:10.382Z,48.81
2018-10-03T16:55:39.323Z,48.80
2018-10-03T16:58:08.784Z,49.29
2018-10-03T17:00:37.786Z,49.03
2018-10-03T17:03:06.799Z,48.93
2018-10-03T17:05:35.798Z,48.97
2018-10-03T17:08:04.755Z,49.17
2018-10-03T17:10:33.754Z,48.86
2018-10-03T17:13:02.715Z,49.56
2018-10-03T17:15:31.751Z,50.16
2018-10-03T17:18:00.726Z,50.19
2018-10-03T17:20:29.675Z,49.66
2018-10-03T17:22:58.643Z,50.06
2018-10-03T17:25:27.619Z,50.08
2018-10-03T17:27:57.218Z,49.49
2018-10-03T17:30:26.185Z,49.67
2018-10-03T17:32:55.191Z,50.23
2018-10-03T17:35:24.194Z,50.27
2018-10-03T17:37:53.154Z,49.59
2018-10-03T17:40:22.162Z,49.91
2018-10-03T17:42:51.178Z,50.69
2018-10-03T17:45:20.190Z,50.32
2018-10-03T17:47:49.194Z,50.79
2018-10-03T17:50:18.226Z,50.63
2018-10-03T17:52:47.192Z,50.82
2018-10-03T17:55:16.246Z,50.62
2018-10-03T17:57:45.222Z,50.73
2018-10-03T18:00:14.180Z,50.97
2018-10-03T18:02:43.171Z,50.89
2018-10-03T18:05:12.178Z,50.87
2018-10-03T18:07:41.150Z,51.17
2018-10-03T18:10:10.138Z,51.54
2018-10-03T18:12:39.178Z,51.29
2018-10-03T18:15:08.224Z,51.69
2018-10-03T18:17:37.210Z,51.36
2018-10-03T18:20:06.159Z,51.54
2018-10-03T18:22:35.111Z,51.77
2018-10-03T18:25:04.132Z,51.37
2018-10-03T18:27:33.051Z,51.57
2018-10-03T18:30:02.134Z,52.06
2018-10-03T18:32:31.079Z,52.01
2018-10-03T18:35:00.039Z,51.66
2018-10-03T18:37:29.248Z,52.07
2018-10-03T18:39:58.267Z,52.22
2018-10-03T18:42:27.262Z,51.95
2018-10-03T18:44:56.290Z,51.97
2018-10-03T18:47:25.290Z,52.18
2018-10-03T18:49:54.238Z,52.24
2018-10-03T18:52:23.250Z,53.10
2018-10-03T18:54:52.271Z,52.83
2018-10-03T18:57:21.377Z,52.68
2018-10-03T18:59:50.318Z,52.66
2018-10-03T19:02:19.258Z,52.67
2018-10-03T19:04:48.233Z,53.10
2018-10-03T19:07:17.182Z,53.47
2018-10-03T19:09:46.131Z,53.38
2018-10-03T19:12:15.150Z,53.14
2018-10-03T19:14:44.072Z,53.09
2018-10-03T19:17:13.062Z,53.71
2018-10-03T19:19:42.031Z,53.49
2018-10-03T19:22:10.993Z,54.46
2018-10-03T19:24:39.942Z,53.76
2018-10-03T19:27:08.886Z,53.43
2018-10-03T19:29:37.863Z,53.95
2018-10-03T19:32:06.809Z,54.21
2018-10-03T19:34:35.900Z,54.16
2018-10-03T19:37:04.875Z,54.47
2018-10-03T19:39:33.870Z,54.44
2018-10-03T19:42:02.891Z,53.66
2018-10-03T19:44:31.798Z,53.73
2018-10-03T19:47:00.883Z,54.30
2018-10-03T19:49:29.935Z,53.47
2018-10-03T19:51:58.903Z,53.72
2018-10-03T19:54:28.123Z,53.41
2018-10-03T19:56:57.081Z,53.80
2018-10-03T19:59:26.043Z,53.55
2018-10-03T20:01:54.997Z,53.80
2018-10-03T20:04:23.951Z,53.87
2018-10-03T20:06:52.915Z,53.74
2018-10-03T20:09:21.882Z,53.38
2018-10-03T20:11:51.629Z,53.16
2018-10-03T20:14:20.634Z,54.27
2018-10-03T20:16:49.575Z,54.46
2018-10-03T20:19:18.570Z,54.59
2018-10-03T20:21:47.515Z,54.45
2018-10-03T20:24:16.502Z,54.54
2018-10-03T20:26:45.534Z,54.06
2018-10-03T20:29:14.507Z,53.96
2018-10-03T20:31:43.527Z,53.80
2018-10-03T20:34:12.489Z,54.37
2018-10-03T20:36:41.421Z,54.77
2018-10-03T20:39:10.503Z,54.32
2018-10-03T20:41:39.555Z,54.42
2018-10-03T20:44:08.550Z,53.92
2018-10-03T20:46:37.519Z,54.29
2018-10-03T20:49:06.482Z,54.18
2018-10-03T20:51:35.467Z,54.02
2018-10-03T20:54:04.396Z,54.31
2018-10-03T20:56:33.360Z,54.38
2018-10-03T20:59:03.223Z,54.47
2018-10-03T21:01:32.198Z,54.53
2018-10-03T21:04:01.156Z,54.52
2018-10-03T21:06:30.118Z,54.46
2018-10-03T21:08:59.058Z,54.47
2018-10-03T21:11:28.082Z,54.46
2018-10-03T21:13:57.057Z,54.36
2018-10-03T21:16:26.047Z,54.44
2018-10-03T21:18:54.994Z,54.31
2018-10-03T21:21:23.976Z,54.38
2018-10-03T21:23:53.015Z,54.48
2018-10-03T21:26:22.015Z,54.57
2018-10-03T21:28:51.097Z,54.85
2018-10-03T21:31:20.103Z,55.06
2018-10-03T21:33:49.043Z,55.26
2018-10-03T21:36:18.102Z,55.47
2018-10-03T21:38:47.163Z,55.23
2018-10-03T21:41:16.143Z,55.23
2018-10-03T21:43:45.185Z,55.02
2018-10-03T21:48:59.058Z,55.30
2018-10-03T21:51:28.054Z,55.46
2018-10-03T21:53:56.986Z,55.62
2018-10-03T21:56:25.976Z,55.94
2018-10-03T21:58:54.916Z,56.63
2018-10-03T22:01:23.886Z,56.08
2018-10-03T22:03:52.827Z,56.51
2018-10-03T22:06:21.859Z,56.25
2018-10-03T22:08:50.879Z,56.51
2018-10-03T22:11:19.829Z,56.20
2018-10-03T22:13:48.822Z,56.69
2018-10-03T22:16:17.763Z,56.83
2018-10-03T22:18:46.686Z,56.88
2018-10-03T22:21:15.614Z,56.34
2018-10-03T22:23:44.543Z,56.39
2018-10-03T22:26:13.555Z,56.68
2018-10-03T22:28:42.474Z,56.81
2018-10-03T22:31:11.451Z,57.20
2018-10-03T22:33:40.366Z,57.81
2018-10-03T22:36:09.316Z,57.80
2018-10-03T22:38:38.271Z,57.60
2018-10-03T22:41:07.226Z,57.80
2018-10-03T22:43:36.818Z,57.75
2018-10-03T22:46:06.266Z,58.03
2018-10-03T22:48:35.340Z,58.14
2018-10-03T22:51:04.294Z,58.15
2018-10-03T22:53:33.287Z,58.22
2018-10-03T22:56:02.220Z,58.40
2018-10-03T22:58:31.199Z,58.42
2018-10-03T23:01:00.134Z,58.60
2018-10-03T23:03:29.086Z,58.21
2018-10-03T23:05:58.062Z,58.10
2018-10-03T23:08:27.038Z,58.24
2018-10-03T23:10:55.970Z,58.35
2018-10-03T23:13:24.910Z,58.10
2018-10-03T23:15:53.958Z,58.37
2018-10-03T23:18:22.908Z,58.72
2018-10-03T23:20:52.288Z,58.93
2018-10-03T23:23:21.255Z,59.21
2018-10-03T23:25:50.174Z,59.51
2018-10-03T23:28:19.118Z,60.11
2018-10-03T23:30:48.024Z,59.84
2018-10-03T23:33:16.966Z,60.17
2018-10-03T23:35:45.879Z,60.12
2018-10-03T23:38:14.819Z,60.08
2018-10-03T23:40:43.770Z,60.28
2018-10-03T23:43:12.711Z,60.30
2018-10-03T23:45:41.642Z,59.90
2018-10-03T23:48:10.582Z,59.76
2018-10-03T23:50:39.499Z,59.88
2018-10-03T23:53:08.447Z,59.95
2018-10-03T23:55:37.354Z,60.17
2018-10-03T23:58:06.383Z,59.94
